Data for 05/20/2016

Time Sea-Level Adjusted Pressure Absolute Pressure Temperature Relative Humidity Dew Point   
(mb) (inHg) (mb) (inHg) (C) (F) (%) (C) (F)
00:05 1011 29.85 840 24.81 5.1 41.2 88 3.3 38
00:10 1011 29.85 840 24.81 4.9 40.9 89 3.2 37.8
00:15 1011 29.85 840 24.81 4.9 40.8 89 3.2 37.7
00:20 1011 29.85 840 24.81 4.9 40.8 89 3.2 37.8
00:25 1011 29.85 840 24.81 5.1 41.1 87 3 37.5
00:30 1011 29.85 840 24.81 5.4 41.7 86 3.2 37.7
00:35 1011 29.85 840 24.81 5.3 41.5 86 3.1 37.6
00:40 1011 29.85 840 24.81 5.3 41.5 85 3.1 37.5
00:45 1011 29.85 840 24.81 5.4 41.8 85 3.1 37.5
00:50 1011 29.85 840 24.81 5.4 41.7 84 3 37.4
00:55 1011 29.85 840 24.81 5.3 41.6 84 2.9 37.2
01:00 1011 29.85 840 24.81 5.4 41.8 83 2.8 37
01:05 1011 29.85 840 24.81 5.6 42.1 83 3 37.4
01:10 1011 29.85 840 24.81 5.6 42.1 83 3 37.3
01:15 1011 29.85 840 24.81 5.5 41.9 84 3.1 37.5
01:20 1011 29.85 840 24.81 5.3 41.5 84 2.8 37.1
01:25 1011 29.85 840 24.81 5.4 41.7 85 3 37.4
01:30 1011 29.85 840 24.81 5.5 41.8 84 3 37.4
01:35 1011 29.85 840 24.81 5.5 41.8 83 2.9 37.2
01:40 1011 29.85 840 24.81 5.5 41.9 83 2.8 37.1
01:45 1011 29.85 840 24.81 5.6 42.1 83 2.9 37.2
01:50 1011 29.85 840 24.81 5.5 41.9 83 2.9 37.2
01:55 1011 29.85 840 24.81 5.6 42 82 2.7 36.8
02:00 1011 29.85 840 24.81 5.7 42.3 82 2.9 37.3
02:05 1011 29.85 840 24.81 5.6 42.1 82 2.8 37
02:10 1011 29.85 840 24.81 5.4 41.7 84 2.9 37.3
02:15 1011 29.85 840 24.81 5 41 87 3 37.3
02:20 1011 29.85 840 24.81 4.8 40.6 87 2.8 37
02:25 1011 29.85 840 24.81 4.8 40.7 86 2.8 37
02:30 1011 29.85 840 24.81 4.9 40.8 86 2.8 37.1
02:35 1011 29.85 841 24.83 5 41.1 86 2.9 37.3
02:40 1011 29.85 841 24.83 5 41 87 3 37.4
02:45 1011 29.85 841 24.83 4.9 40.9 87 3 37.4
02:50 1011 29.85 840 24.81 4.8 40.6 88 3 37.4
02:55 1011 29.85 840 24.81 4.5 40.1 90 3 37.4
03:00 1011 29.85 841 24.83 4.3 39.8 90 2.9 37.1
03:05 1011 29.85 840 24.81 4.5 40 89 2.8 37
03:10 1011 29.85 840 24.81 4.5 40.2 89 2.8 37.1
03:15 1011 29.85 841 24.83 4.6 40.2 88 2.8 37.1
03:20 1011 29.85 841 24.83 4.7 40.4 88 2.8 37
03:25 1011 29.85 841 24.83 4.8 40.6 87 2.8 37
03:30 1011 29.85 841 24.83 4.8 40.6 87 2.9 37.2
03:35 1011 29.85 841 24.83 4.7 40.4 88 2.9 37.2
03:40 1011 29.85 841 24.83 4.6 40.2 89 2.9 37.2
03:45 1011 29.85 840 24.81 4.7 40.5 88 2.9 37.2
03:50 1011 29.85 840 24.81 4.9 40.7 88 3 37.4
03:55 1011 29.85 840 24.81 4.8 40.6 88 3 37.4
04:00 1011 29.85 840 24.81 4.6 40.3 89 3 37.4
04:05 1011 29.85 840 24.81 4.6 40.3 89 3 37.3
04:10 1011 29.85 840 24.81 4.6 40.4 89 3 37.4
04:15 1011 29.85 840 24.81 4.6 40.3 89 2.9 37.3
04:20 1011 29.85 840 24.81 4.6 40.3 89 2.9 37.3
04:25 1011 29.85 840 24.81 4.7 40.4 88 2.9 37.2
04:30 1011 29.85 840 24.81 4.7 40.5 88 2.9 37.2
04:35 1011 29.85 840 24.81 4.9 40.8 86 2.8 37
04:40 1011 29.85 840 24.81 4.9 40.8 87 2.8 37.1
04:45 1011 29.85 840 24.81 4.9 40.9 86 2.8 37
04:50 1011 29.85 840 24.81 5 41 85 2.8 37
04:55 1011 29.85 840 24.81 5 41 85 2.7 36.9
05:00 1011 29.85 840 24.81 5 41.1 85 2.8 37
05:05 1011 29.85 840 24.81 5.2 41.3 83 2.6 36.7
05:10 1011 29.85 840 24.81 5.4 41.6 85 3 37.4
05:15 1010 29.83 840 24.81 5.1 41.1 86 2.9 37.3
05:20 1010 29.83 840 24.81 4.9 40.9 87 3 37.4
05:25 1011 29.85 840 24.81 4.9 40.9 87 2.9 37.3
05:30 1011 29.85 840 24.81 4.9 40.8 87 2.9 37.3
05:35 1011 29.85 840 24.81 4.8 40.6 87 2.9 37.2
05:40 1011 29.85 840 24.81 4.7 40.5 88 2.9 37.2
05:45 1011 29.85 840 24.81 4.6 40.3 88 2.8 37
05:50 1011 29.85 840 24.81 4.7 40.4 87 2.7 36.9
05:55 1011 29.85 840 24.81 4.6 40.3 88 2.7 36.9
06:00 1011 29.85 840 24.81 4.7 40.5 88 2.9 37.1
06:05 1011 29.85 840 24.81 4.8 40.7 87 2.8 37.1
06:10 1011 29.85 840 24.81 5.1 41.2 85 2.8 37.1
06:15 1011 29.85 840 24.81 5.2 41.4 84 2.8 37
06:20 1011 29.85 840 24.81 5.4 41.6 84 2.9 37.2
06:25 1011 29.85 840 24.81 5.6 42.1 83 3 37.4
06:30 1011 29.85 840 24.81 5.9 42.6 84 3.4 38.1
06:35 1011 29.85 840 24.81 6 42.8 83 3.4 38.2
06:40 1011 29.85 841 24.83 6 42.9 84 3.5 38.3
06:45 1011 29.85 840 24.81 6 42.8 85 3.7 38.6
06:50 1011 29.85 841 24.83 5.8 42.5 85 3.6 38.4
06:55 1011 29.85 841 24.83 5.9 42.6 85 3.6 38.5
07:00 1011 29.85 841 24.83 5.8 42.5 86 3.7 38.6
07:05 1011 29.85 841 24.83 6 42.7 85 3.7 38.7
07:10 1011 29.85 840 24.81 6.2 43.2 86 4 39.2
07:15 1011 29.85 840 24.81 6.3 43.4 83 3.7 38.6
07:20 1011 29.85 841 24.83 6.5 43.7 83 3.9 39
07:25 1011 29.85 841 24.83 6.8 44.3 81 3.8 38.8
07:30 1011 29.85 840 24.81 7 44.6 76 3.1 37.6
07:35 1011 29.85 840 24.81 7.1 44.8 79 3.7 38.6
07:40 1011 29.85 841 24.83 7.5 45.5 78 3.9 39
07:45 1011 29.85 841 24.83 7.9 46.3 75 3.8 38.9
07:50 1011 29.85 841 24.83 8 46.4 75 3.8 38.8
07:55 1011 29.85 841 24.83 8.3 46.9 73 3.7 38.6
08:00 1011 29.85 841 24.83 8.7 47.6 72 4 39.2
08:05 1011 29.85 841 24.83 9.1 48.4 71 4.2 39.6
08:10 1011 29.85 841 24.83 9.6 49.2 70 4.3 39.7
08:15 1011 29.85 841 24.83 9.2 48.6 71 4.3 39.7
08:20 1011 29.85 841 24.83 9.5 49.1 69 4.2 39.6
08:25 1011 29.85 841 24.83 10.1 50.2 68 4.5 40
08:30 1011 29.85 841 24.83 10.3 50.5 68 4.8 40.6
08:35 1011 29.85 841 24.83 10.1 50.2 66 4.1 39.4
08:40 1011 29.85 841 24.83 10 50 67 4.2 39.5
08:45 1011 29.85 841 24.83 9.8 49.7 68 4.2 39.6
08:50 1011 29.85 841 24.83 10 50.1 67 4.2 39.6
08:55 1011 29.85 841 24.83 10.2 50.3 67 4.3 39.8
09:00 1011 29.85 841 24.83 10.1 50.1 67 4.2 39.6
09:05 1011 29.85 841 24.83 10.1 50.2 69 4.7 40.4
09:10 1011 29.85 841 24.83 10 49.9 68 4.5 40
09:15 1011 29.85 841 24.83 9.9 49.7 69 4.4 39.9
09:20 1011 29.85 841 24.83 10.2 50.4 67 4.4 39.9
09:25 1011 29.85 841 24.83 11 51.7 66 5 41
09:30 1011 29.85 840 24.81 10.8 51.5 67 5 41.1
09:35 1011 29.85 840 24.81 10.3 50.6 69 4.9 40.8
09:40 1011 29.85 840 24.81 10.4 50.6 68 4.8 40.6
09:45 1011 29.85 840 24.81 10.4 50.8 69 5 41
09:50 1011 29.85 840 24.81 10.4 50.8 70 5.2 41.4
09:55 1011 29.85 841 24.83 10.2 50.3 70 5.1 41.1
10:00 1011 29.85 841 24.83 10 49.9 71 5 41.1
10:05 1011 29.85 841 24.83 9.8 49.7 72 5 41
10:10 1011 29.85 840 24.81 9.7 49.5 72 4.9 40.9
10:15 1011 29.85 840 24.81 9.5 49 74 5.1 41.1
10:20 1011 29.85 840 24.81 9.5 49.1 74 5.1 41.1
10:25 1011 29.85 840 24.81 9.6 49.2 75 5.5 41.8
10:30 1011 29.85 840 24.81 9.3 48.8 76 5.4 41.6
10:35 1011 29.85 840 24.81 9.6 49.3 74 5.3 41.5
10:40 1011 29.85 840 24.81 10.5 50.9 70 5.3 41.5
10:45 1011 29.85 840 24.81 10.1 50.1 72 5.3 41.6
10:50 1011 29.85 840 24.81 10.7 51.3 69 5.4 41.6
10:55 1011 29.85 840 24.81 11 51.8 67 5.2 41.4
11:00 1011 29.85 840 24.81 10.9 51.6 70 5.6 42.2
11:05 1011 29.85 840 24.81 11 51.7 69 5.5 41.8
11:10 1010 29.83 840 24.81 10.7 51.2 69 5.3 41.5
11:15 1010 29.83 840 24.81 11.2 52.1 66 5 41.1
11:20 1010 29.83 839 24.78 12.3 54.1 63 5.4 41.7
11:25 1010 29.83 839 24.78 12.6 54.7 63 5.9 42.5
11:30 1010 29.83 839 24.78 12.2 54 62 5.1 41.3
11:35 1010 29.83 839 24.78 12.3 54.1 55 3.5 38.2
11:40 1010 29.83 839 24.78 12.8 55 53 3.5 38.2
11:45 1010 29.83 839 24.78 13.1 55.5 53 3.9 39
11:50 1010 29.83 839 24.78 13 55.4 53 3.7 38.6
11:55 1010 29.83 839 24.78 13.1 55.6 54 4 39.2
12:00 1010 29.83 839 24.78 13.1 55.6 54 4 39.2
12:05 1010 29.83 839 24.78 13.3 55.9 53 4.1 39.4
12:10 1009 29.8 839 24.78 13.7 56.6 51 3.8 38.8
12:15 1009 29.8 839 24.78 13.7 56.7 52 4.2 39.5
12:20 1009 29.8 838 24.75 14 57.3 51 4.1 39.4
12:25 1009 29.8 838 24.75 14.3 57.7 51 4.4 39.9
12:30 1009 29.8 838 24.75 14.3 57.7 51 4.3 39.8
12:35 1009 29.8 838 24.75 14.2 57.6 51 4.4 40
12:40 1009 29.8 838 24.75 14.2 57.5 52 4.6 40.3
12:45 1009 29.8 838 24.75 14.3 57.8 53 4.8 40.7
12:50 1009 29.8 838 24.75 14.4 58 54 5.3 41.5
12:55 1009 29.8 838 24.75 14.5 58 54 5.3 41.5
13:00 1009 29.8 838 24.75 14.5 58.2 55 5.7 42.2
13:05 1009 29.8 838 24.75 14.7 58.4 55 5.9 42.6
13:10 1009 29.8 838 24.75 14.5 58.1 56 6 42.7
13:15 1009 29.8 838 24.75 14.6 58.3 55 5.9 42.6
13:20 1009 29.8 838 24.75 15.1 59.2 55 6.1 43
13:25 1009 29.8 838 24.75 15 59.1 55 6.1 43
13:30 1009 29.8 838 24.75 14.7 58.5 55 5.8 42.5
13:35 1008 29.77 838 24.75 14.8 58.6 55 5.8 42.4
13:40 1009 29.8 838 24.75 14.8 58.7 55 5.9 42.6
13:45 1008 29.77 838 24.75 14.9 58.8 55 6.1 42.9
13:50 1008 29.77 838 24.75 15.1 59.1 55 6.2 43.2
13:55 1008 29.77 838 24.75 14.9 58.7 56 6.2 43.2
14:00 1008 29.77 838 24.75 14.6 58.4 58 6.6 43.8
14:05 1008 29.77 838 24.75 14.7 58.4 56 6 42.8
14:10 1008 29.77 837 24.72 14.6 58.3 57 6.4 43.5
14:15 1008 29.77 837 24.72 14.4 58 57 6.1 43.1
14:20 1008 29.77 837 24.72 15 58.9 57 6.5 43.6
14:25 1008 29.77 837 24.72 14.8 58.6 58 6.6 43.9
14:30 1008 29.77 837 24.72 14.8 58.7 56 6.1 43
14:35 1008 29.77 837 24.72 14.8 58.6 58 6.6 43.9
14:40 1008 29.77 837 24.72 15 59 57 6.7 44.1
14:45 1008 29.77 837 24.72 15.1 59.2 56 6.5 43.7
14:50 1008 29.77 837 24.72 15.1 59.2 58 7.1 44.7
14:55 1008 29.77 837 24.72 15.3 59.5 57 7 44.6
15:00 1008 29.77 837 24.72 15.3 59.6 57 7 44.7
15:05 1008 29.77 837 24.72 15.1 59.2 58 7.1 44.8
15:10 1008 29.77 837 24.72 15.3 59.5 58 7.1 44.8
15:15 1008 29.77 837 24.72 14.9 58.9 59 7.2 44.9
15:20 1008 29.77 837 24.72 14.8 58.6 59 6.9 44.5
15:25 1008 29.77 837 24.72 14.6 58.2 61 7.2 45
15:30 1008 29.77 837 24.72 14.7 58.4 61 7.2 45
15:35 1008 29.77 837 24.72 14.7 58.5 61 7.4 45.4
15:40 1008 29.77 837 24.72 14.5 58 60 6.9 44.5
15:45 1008 29.77 837 24.72 14.5 58.1 61 7.1 44.7
15:50 1008 29.77 837 24.72 14.8 58.6 61 7.3 45.1
15:55 1008 29.77 837 24.72 14.9 58.8 60 7.4 45.3
16:00 1008 29.77 837 24.72 15 59 61 7.7 45.8
16:05 1008 29.77 837 24.72 14.8 58.6 61 7.4 45.3
16:10 1008 29.77 837 24.72 14.6 58.3 62 7.6 45.7
16:15 1008 29.77 837 24.72 14.6 58.2 63 7.8 46
16:20 1008 29.77 838 24.75 14.4 57.9 64 7.7 45.8
16:25 1009 29.8 838 24.75 14.4 57.8 64 7.6 45.7
16:30 1009 29.8 838 24.75 14.3 57.7 64 7.6 45.6
16:35 1009 29.8 838 24.75 14.3 57.7 64 7.7 45.8
16:40 1009 29.8 838 24.75 14.3 57.7 64 7.7 45.9
16:45 1009 29.8 838 24.75 14.4 57.9 63 7.4 45.4
16:50 1009 29.8 838 24.75 14.4 57.9 63 7.4 45.3
16:55 1009 29.8 838 24.75 14.3 57.7 63 7.4 45.3
17:00 1009 29.8 839 24.78 14.1 57.4 69 8.5 47.3
17:05 1009 29.8 839 24.78 13.4 56.2 72 8.5 47.4
17:10 1009 29.8 838 24.75 13.1 55.6 74 8.6 47.5
17:15 1009 29.8 838 24.75 12.8 55 75 8.5 47.2
17:20 1009 29.8 838 24.75 12.5 54.5 79 9 48.3
17:25 1009 29.8 838 24.75 12 53.6 82 9 48.1
17:30 1009 29.8 839 24.78 11.7 53 85 9.2 48.6
17:35 1009 29.8 839 24.78 11.5 52.8 85 9.1 48.4
17:40 1010 29.83 839 24.78 11.5 52.7 85 9.1 48.4
17:45 1010 29.83 839 24.78 11.4 52.6 88 9.5 49
17:50 1010 29.83 839 24.78 11.2 52.1 90 9.6 49.2
17:55 1010 29.83 839 24.78 11.1 51.9 90 9.5 49.2
18:00 1010 29.83 839 24.78 10.9 51.6 91 9.5 49.1
18:05 1010 29.83 839 24.78 10.9 51.7 91 9.5 49.2
18:10 1010 29.83 839 24.78 10.6 51.1 90 9 48.2
18:15 1010 29.83 839 24.78 10.4 50.7 91 9 48.2
18:20 1010 29.83 839 24.78 10.3 50.6 92 9 48.2
18:25 1010 29.83 840 24.81 10.3 50.5 92 9 48.2
18:30 1010 29.83 839 24.78 10.2 50.3 91 8.8 47.8
18:35 1010 29.83 839 24.78 10.1 50.3 90 8.6 47.5
18:40 1010 29.83 839 24.78 10.1 50.2 89 8.3 47
18:45 1010 29.83 839 24.78 10.2 50.4 89 8.5 47.2
18:50 1010 29.83 839 24.78 10.3 50.6 89 8.6 47.5
18:55 1010 29.83 839 24.78 10.4 50.8 87 8.4 47.1
19:00 1010 29.83 839 24.78 10.4 50.7 87 8.3 46.9
19:05 1010 29.83 839 24.78 10.4 50.8 85 8.1 46.5
19:10 1010 29.83 839 24.78 10.5 51 85 8.1 46.6
19:15 1010 29.83 839 24.78 10.5 51 85 8.2 46.8
19:20 1010 29.83 839 24.78 10.4 50.7 85 8.1 46.6
19:25 1010 29.83 839 24.78 10.5 50.8 85 8.1 46.6
19:30 1010 29.83 839 24.78 10.7 51.2 86 8.4 47.1
19:35 1010 29.83 839 24.78 10.9 51.6 85 8.5 47.3
19:40 1010 29.83 839 24.78 11.1 52 86 8.8 47.9
19:45 1010 29.83 839 24.78 11.4 52.4 84 8.8 47.9
19:50 1009 29.8 839 24.78 11.4 52.6 84 8.8 47.8
19:55 1009 29.8 839 24.78 11.6 52.9 84 9 48.1
20:00 1009 29.8 839 24.78 11.6 52.9 84 9.1 48.3
20:05 1010 29.83 839 24.78 11.7 53.1 84 9.1 48.5
20:10 1010 29.83 839 24.78 11.9 53.4 84 9.2 48.6
20:15 1010 29.83 839 24.78 12 53.6 84 9.3 48.8
20:20 1010 29.83 839 24.78 12.1 53.7 84 9.4 49
20:25 1010 29.83 840 24.81 12 53.7 84 9.5 49
20:30 1010 29.83 840 24.81 12.1 53.7 84 9.5 49.1
20:35 1011 29.85 840 24.81 12 53.6 84 9.4 48.9
20:40 1011 29.85 840 24.81 12.1 53.8 83 9.4 48.9
20:45 1011 29.85 840 24.81 12.2 53.9 79 8.7 47.7
20:50 1011 29.85 840 24.81 12 53.7 76 8 46.3
20:55 1011 29.85 841 24.83 11.3 52.3 81 8.2 46.7
21:00 1011 29.85 841 24.83 10.7 51.2 83 8 46.4
21:05 1012 29.88 841 24.83 10.6 51.1 83 7.9 46.1
21:10 1012 29.88 841 24.83 10.6 51.2 82 7.7 45.9
21:15 1011 29.85 841 24.83 10.7 51.3 82 7.9 46.2
21:20 1011 29.85 841 24.83 10.8 51.4 82 7.8 46.1
21:25 1011 29.85 841 24.83 10.8 51.4 83 8 46.4
21:30 1011 29.85 841 24.83 10.7 51.2 84 8.2 46.7
21:35 1011 29.85 841 24.83 10.5 50.9 87 8.4 47.1
21:40 1011 29.85 841 24.83 10.2 50.3 89 8.4 47.1
21:45 1012 29.88 841 24.83 10 50 90 8.4 47.2
21:50 1012 29.88 841 24.83 10 50.1 90 8.5 47.3
21:55 1012 29.88 841 24.83 10.1 50.2 90 8.6 47.4
22:00 1012 29.88 841 24.83 10.2 50.3 90 8.6 47.5
22:05 1012 29.88 841 24.83 10.1 50.2 90 8.5 47.4
22:10 1011 29.85 841 24.83 9.9 49.9 91 8.5 47.3
22:15 1011 29.85 840 24.81 9.7 49.5 92 8.5 47.2
22:20 1011 29.85 840 24.81 9.7 49.4 92 8.5 47.2
22:25 1011 29.85 840 24.81 9.6 49.3 92 8.4 47.2
22:30 1011 29.85 840 24.81 9.6 49.2 93 8.4 47.2
22:35 1011 29.85 840 24.81 9.5 49.2 93 8.4 47.2
22:40 1011 29.85 840 24.81 9.5 49 93 8.3 47
22:45 1011 29.85 840 24.81 9.4 49 93 8.3 47
22:50 1011 29.85 840 24.81 9.4 49 93 8.3 47
22:55 1011 29.85 840 24.81 9.4 48.9 92 8.2 46.8
23:00 1011 29.85 840 24.81 9.4 49 92 8.1 46.7
23:05 1011 29.85 840 24.81 9.5 49 90 8 46.4
23:10 1010 29.83 840 24.81 9.5 49.2 89 7.8 46.1
23:15 1010 29.83 840 24.81 9.7 49.5 88 7.8 46.1
23:20 1011 29.85 840 24.81 9.8 49.6 88 7.8 46.1
23:25 1011 29.85 840 24.81 9.8 49.7 88 7.9 46.3
23:30 1011 29.85 840 24.81 9.7 49.4 90 8.1 46.5
23:35 1011 29.85 840 24.81 9.4 48.9 91 7.9 46.3
23:40 1010 29.83 840 24.81 9.3 48.7 91 7.9 46.2
23:45 1010 29.83 840 24.81 9.2 48.6 91 7.9 46.2
23:50 1011 29.85 840 24.81 9.1 48.5 92 7.9 46.2
23:55 1011 29.85 840 24.81 9.2 48.5 92 7.9 46.3
24:00 1011 29.85 840 24.81 9.2 48.5 92 7.9 46.3